createdAt,value
2023-07-21T14:09:40.909Z,25.69
2023-07-21T14:12:24.450Z,25.08
2023-07-21T14:15:02.855Z,25.29
2023-07-21T14:21:10.070Z,23.46
2023-07-21T14:23:44.505Z,23.45
2023-07-21T14:26:31.973Z,23.37
2023-07-21T16:13:53.287Z,24.46
2023-07-21T16:16:21.553Z,23.16
2023-07-21T16:18:54.094Z,22.71
2023-07-21T16:21:22.083Z,23.62
2023-07-21T16:23:49.466Z,23.68
2023-07-21T16:26:22.004Z,23.62
2023-07-21T16:28:55.608Z,24.10
2023-07-21T16:31:26.466Z,24.02
2023-07-21T16:34:10.319Z,23.82
2023-07-21T16:36:39.083Z,23.83
2023-07-21T16:41:52.689Z,23.66
2023-07-21T16:44:38.621Z,24.72
2023-07-21T16:47:18.365Z,24.78
2023-07-21T16:49:51.343Z,24.34
2023-07-21T16:52:21.043Z,25.09
2023-07-21T16:55:17.703Z,24.44
2023-07-21T16:57:48.524Z,24.37
2023-07-21T17:04:01.446Z,25.82
2023-07-21T17:06:40.787Z,25.20
2023-07-21T17:09:17.172Z,25.91
2023-07-21T17:11:44.383Z,26.14
2023-07-21T17:14:11.332Z,26.78
2023-07-21T17:16:38.554Z,26.79
2023-07-21T17:19:27.733Z,27.08
2023-07-21T17:21:54.837Z,26.80
2023-07-21T17:24:41.939Z,27.69
2023-07-21T17:27:09.206Z,29.18
2023-07-21T17:29:36.596Z,30.28
2023-07-21T17:32:04.020Z,31.04
2023-07-21T17:34:31.062Z,32.70
2023-07-21T17:36:58.361Z,33.42
2023-07-21T17:39:25.294Z,33.84
2023-07-21T17:41:52.658Z,34.57
2023-07-21T17:44:20.210Z,34.55
2023-07-21T17:49:28.055Z,35.14
2023-07-21T17:51:54.994Z,35.54
2023-07-21T17:54:21.949Z,35.31
2023-07-21T17:56:49.543Z,35.62
2023-07-21T17:59:16.409Z,35.54
2023-07-21T18:01:43.668Z,35.60
2023-07-21T18:04:10.934Z,35.73
2023-07-21T18:06:37.911Z,36.08
2023-07-21T18:09:05.124Z,35.92
2023-07-21T18:11:32.300Z,36.91
2023-07-21T18:17:49.031Z,37.02
2023-07-21T19:00:39.171Z,35.87
2023-07-21T19:03:10.560Z,35.37
2023-07-21T19:05:51.168Z,35.83
2023-07-21T19:08:18.045Z,35.19
2023-07-21T19:11:42.790Z,35.63
2023-07-21T19:38:25.116Z,35.29
2023-07-21T19:40:52.174Z,35.50
2023-07-21T19:43:21.708Z,35.38
2023-07-21T19:45:50.699Z,36.06
2023-07-21T19:48:17.656Z,35.74
2023-07-21T19:50:44.544Z,35.99
2023-07-21T19:53:11.838Z,36.00
2023-07-21T19:55:39.812Z,35.30
2023-07-21T19:58:10.181Z,36.48
2023-07-21T20:00:38.829Z,36.26
2023-07-21T20:03:06.337Z,36.17
2023-07-21T20:05:33.624Z,36.43
2023-07-21T20:08:00.637Z,36.32
2023-07-21T20:10:27.587Z,35.72
2023-07-21T20:12:54.471Z,36.00
2023-07-21T20:15:21.443Z,36.24
2023-07-21T20:17:48.414Z,35.59
2023-07-21T20:20:15.733Z,35.24
2023-07-21T20:22:42.835Z,36.16
2023-07-21T20:25:11.623Z,35.82
2023-07-21T20:27:39.061Z,35.53
2023-07-21T20:30:06.995Z,36.19
2023-07-21T20:32:34.184Z,36.76
2023-07-21T20:35:01.107Z,35.90
2023-07-21T20:37:28.234Z,35.88
2023-07-21T20:39:55.046Z,35.90
2023-07-21T20:42:21.837Z,35.13
2023-07-21T20:44:48.901Z,36.01
2023-07-21T20:47:15.767Z,36.99
2023-07-21T20:49:45.903Z,37.22
2023-07-21T20:52:13.440Z,37.08
2023-07-21T20:54:40.301Z,36.68
2023-07-21T20:57:10.319Z,37.48
2023-07-21T20:59:42.021Z,37.77
2023-07-21T21:02:15.309Z,37.97
2023-07-21T21:04:42.408Z,38.93
2023-07-21T21:07:09.640Z,37.97
2023-07-21T21:09:37.873Z,38.35
2023-07-21T21:12:05.298Z,37.65
2023-07-21T21:14:33.741Z,38.29
2023-07-21T21:17:01.036Z,38.08
2023-07-21T21:19:28.212Z,38.38
2023-07-21T21:21:55.086Z,38.44
2023-07-21T21:24:22.136Z,38.51
2023-07-21T21:26:49.294Z,39.06
2023-07-21T21:29:16.372Z,38.86
2023-07-21T21:31:43.218Z,39.87
2023-07-21T21:34:12.896Z,40.28
2023-07-21T21:36:40.336Z,39.83
2023-07-21T21:39:07.200Z,39.60
2023-07-21T21:41:34.085Z,39.93
2023-07-21T21:44:00.842Z,39.38
2023-07-21T21:46:28.190Z,39.20
2023-07-21T21:48:55.378Z,39.68
2023-07-21T21:51:23.052Z,39.49
2023-07-21T21:53:49.881Z,40.28
2023-07-21T21:56:16.825Z,40.84
2023-07-21T21:58:44.053Z,40.66
2023-07-21T22:01:10.891Z,41.00
2023-07-21T22:03:40.658Z,42.70
2023-07-21T22:06:08.251Z,43.81
2023-07-21T22:08:35.337Z,44.14
2023-07-21T22:11:05.846Z,46.12
2023-07-21T22:13:34.425Z,45.79
2023-07-21T22:16:03.781Z,45.91
2023-07-21T22:18:31.572Z,46.80
2023-07-21T22:20:59.193Z,46.61
2023-07-21T22:23:26.257Z,45.59
2023-07-21T22:25:53.174Z,45.73
2023-07-21T22:28:22.793Z,46.79
2023-07-21T22:30:49.800Z,45.76
2023-07-21T22:33:16.926Z,45.86
2023-07-21T22:35:44.022Z,46.87
2023-07-21T22:38:11.099Z,47.39
2023-07-21T22:40:38.584Z,47.81
2023-07-21T22:43:05.690Z,46.95
2023-07-21T22:45:32.805Z,47.46
2023-07-21T22:48:00.754Z,47.07
2023-07-21T22:50:27.712Z,48.48
2023-07-21T22:52:54.753Z,46.98
2023-07-21T22:55:21.629Z,47.17
2023-07-21T22:57:48.634Z,48.50
2023-07-21T23:00:16.045Z,49.65
2023-07-21T23:02:43.124Z,49.99
2023-07-21T23:05:10.203Z,49.59
2023-07-21T23:07:37.462Z,50.34
2023-07-21T23:10:05.028Z,50.24
2023-07-21T23:12:32.090Z,49.82
2023-07-21T23:14:59.814Z,49.85
2023-07-21T23:17:27.849Z,50.52
2023-07-21T23:19:54.834Z,50.52
2023-07-21T23:22:22.046Z,51.65
2023-07-21T23:24:49.574Z,51.85
2023-07-21T23:27:16.625Z,51.90
2023-07-21T23:29:44.087Z,52.04
2023-07-21T23:32:11.514Z,51.97
2023-07-21T23:34:38.598Z,52.69
2023-07-21T23:37:06.289Z,51.98
2023-07-21T23:39:34.099Z,51.38
2023-07-21T23:42:01.508Z,49.83
2023-07-21T23:44:28.707Z,49.56
2023-07-21T23:46:55.926Z,49.44
2023-07-21T23:49:22.978Z,49.34
2023-07-21T23:51:49.819Z,49.81
2023-07-21T23:54:16.856Z,51.19
2023-07-21T23:56:43.751Z,51.20
2023-07-21T23:59:10.807Z,51.46
